Naran Bulag, China
Current Conditions -  °F | °C
As of 10:00 PM on Tuesday 27 Jan 2015 (Local Time) from ZBHH Reporting Station
Clear Clear  
Wind Chill:   Ceiling: Unl
Heat Index: 14°   Visibility: 6mi
Dew Point: -2°   Wind: 9mph
Humidity: 49%   Direction: 30°NNE
Pressure: 30.39"   Gusts: NA
Location:  44.62°N, 114.15°E
Report Text: ZBHH 271400Z 03004MPS CAVOK M10/M19 Q1029 NOSIG
Loading
Personal Weather Stations






























Interactive Weather Map New forecast layout! Learn more

10-Day Weather Forecast

Advertisements
Track Severe Weather on mobile